sensor_id;sensor_type;location;lat;lon;timestamp;temperature;humidity
23618;DHT22;18207;32.078;34.818;2024-03-22T00:00:25;24.20;35.90
23618;DHT22;18207;32.078;34.818;2024-03-22T00:02:52;24.20;35.90
23618;DHT22;18207;32.078;34.818;2024-03-22T00:05:20;24.10;35.90
23618;DHT22;18207;32.078;34.818;2024-03-22T00:07:48;24.10;35.80
23618;DHT22;18207;32.078;34.818;2024-03-22T00:10:16;24.10;35.80
23618;DHT22;18207;32.078;34.818;2024-03-22T00:12:45;24.10;35.90
23618;DHT22;18207;32.078;34.818;2024-03-22T00:15:14;24.10;35.90
23618;DHT22;18207;32.078;34.818;2024-03-22T00:17:42;24.10;35.90
23618;DHT22;18207;32.078;34.818;2024-03-22T00:20:11;24.10;36.00
23618;DHT22;18207;32.078;34.818;2024-03-22T00:22:39;24.10;36.10
23618;DHT22;18207;32.078;34.818;2024-03-22T00:25:08;24.10;36.10
23618;DHT22;18207;32.078;34.818;2024-03-22T00:27:35;24.10;36.10
23618;DHT22;18207;32.078;34.818;2024-03-22T00:30:07;24.10;36.10
23618;DHT22;18207;32.078;34.818;2024-03-22T00:32:35;24.10;36.10
23618;DHT22;18207;32.078;34.818;2024-03-22T00:35:04;24.10;36.60
23618;DHT22;18207;32.078;34.818;2024-03-22T00:37:32;24.10;35.90
23618;DHT22;18207;32.078;34.818;2024-03-22T00:40:00;24.10;35.90
23618;DHT22;18207;32.078;34.818;2024-03-22T00:42:27;24.10;35.90
23618;DHT22;18207;32.078;34.818;2024-03-22T00:44:56;24.10;35.80
23618;DHT22;18207;32.078;34.818;2024-03-22T00:47:26;24.10;35.80
23618;DHT22;18207;32.078;34.818;2024-03-22T00:49:55;24.10;35.70
23618;DHT22;18207;32.078;34.818;2024-03-22T00:52:23;24.10;35.60
23618;DHT22;18207;32.078;34.818;2024-03-22T00:54:52;24.10;35.50
23618;DHT22;18207;32.078;34.818;2024-03-22T00:57:19;24.10;35.50
23618;DHT22;18207;32.078;34.818;2024-03-22T00:59:49;24.00;35.90
23618;DHT22;18207;32.078;34.818;2024-03-22T01:02:16;24.10;35.30
23618;DHT22;18207;32.078;34.818;2024-03-22T01:04:46;24.10;35.20
23618;DHT22;18207;32.078;34.818;2024-03-22T01:07:14;24.00;35.10
23618;DHT22;18207;32.078;34.818;2024-03-22T01:09:43;24.00;35.00
23618;DHT22;18207;32.078;34.818;2024-03-22T01:12:11;24.00;35.00
23618;DHT22;18207;32.078;34.818;2024-03-22T01:14:40;24.00;35.00
23618;DHT22;18207;32.078;34.818;2024-03-22T01:17:07;24.00;35.00
23618;DHT22;18207;32.078;34.818;2024-03-22T01:19:36;24.00;35.00
23618;DHT22;18207;32.078;34.818;2024-03-22T01:22:05;23.90;34.90
23618;DHT22;18207;32.078;34.818;2024-03-22T01:24:33;24.00;35.00
23618;DHT22;18207;32.078;34.818;2024-03-22T01:27:02;23.90;35.00
23618;DHT22;18207;32.078;34.818;2024-03-22T01:29:31;23.90;35.10
23618;DHT22;18207;32.078;34.818;2024-03-22T01:31:58;23.90;35.10
23618;DHT22;18207;32.078;34.818;2024-03-22T01:34:27;23.90;35.20
23618;DHT22;18207;32.078;34.818;2024-03-22T01:36:55;23.90;35.20
23618;DHT22;18207;32.078;34.818;2024-03-22T01:39:25;23.90;35.30
23618;DHT22;18207;32.078;34.818;2024-03-22T01:41:52;23.90;35.30
23618;DHT22;18207;32.078;34.818;2024-03-22T01:44:27;23.90;35.30
23618;DHT22;18207;32.078;34.818;2024-03-22T01:47:02;23.90;35.30
23618;DHT22;18207;32.078;34.818;2024-03-22T01:49:32;23.90;35.30
23618;DHT22;18207;32.078;34.818;2024-03-22T01:51:59;23.90;35.20
23618;DHT22;18207;32.078;34.818;2024-03-22T01:54:31;23.90;35.20
23618;DHT22;18207;32.078;34.818;2024-03-22T01:56:59;23.90;35.20
23618;DHT22;18207;32.078;34.818;2024-03-22T01:59:30;23.90;35.20
23618;DHT22;18207;32.078;34.818;2024-03-22T02:02:00;23.90;35.10
23618;DHT22;18207;32.078;34.818;2024-03-22T02:04:29;23.90;35.10
23618;DHT22;18207;32.078;34.818;2024-03-22T02:06:56;23.80;35.00
23618;DHT22;18207;32.078;34.818;2024-03-22T02:09:25;23.80;35.00
23618;DHT22;18207;32.078;34.818;2024-03-22T02:11:55;23.80;35.10
23618;DHT22;18207;32.078;34.818;2024-03-22T02:14:23;23.80;35.00
23618;DHT22;18207;32.078;34.818;2024-03-22T02:16:51;23.80;34.90
23618;DHT22;18207;32.078;34.818;2024-03-22T02:19:20;23.80;34.90
23618;DHT22;18207;32.078;34.818;2024-03-22T02:21:47;23.80;34.90
23618;DHT22;18207;32.078;34.818;2024-03-22T02:24:17;23.80;34.90
23618;DHT22;18207;32.078;34.818;2024-03-22T02:26:45;23.80;34.80
23618;DHT22;18207;32.078;34.818;2024-03-22T02:29:13;23.80;34.70
23618;DHT22;18207;32.078;34.818;2024-03-22T02:31:41;23.80;34.70
23618;DHT22;18207;32.078;34.818;2024-03-22T02:34:10;23.80;34.70
23618;DHT22;18207;32.078;34.818;2024-03-22T02:36:37;23.80;34.60
23618;DHT22;18207;32.078;34.818;2024-03-22T02:39:06;23.80;34.60
23618;DHT22;18207;32.078;34.818;2024-03-22T02:41:35;23.70;34.50
23618;DHT22;18207;32.078;34.818;2024-03-22T02:44:03;23.70;34.50
23618;DHT22;18207;32.078;34.818;2024-03-22T02:46:31;23.70;34.50
23618;DHT22;18207;32.078;34.818;2024-03-22T02:49:00;23.70;34.60
23618;DHT22;18207;32.078;34.818;2024-03-22T02:51:27;23.70;34.60
23618;DHT22;18207;32.078;34.818;2024-03-22T02:53:56;23.60;34.50
23618;DHT22;18207;32.078;34.818;2024-03-22T02:56:23;23.60;34.60
23618;DHT22;18207;32.078;34.818;2024-03-22T02:58:53;23.60;34.70
23618;DHT22;18207;32.078;34.818;2024-03-22T03:01:20;23.60;34.70
23618;DHT22;18207;32.078;34.818;2024-03-22T03:03:49;23.60;34.70
23618;DHT22;18207;32.078;34.818;2024-03-22T03:06:17;23.60;34.70
23618;DHT22;18207;32.078;34.818;2024-03-22T03:08:46;23.60;34.70
23618;DHT22;18207;32.078;34.818;2024-03-22T03:11:14;23.60;34.80
23618;DHT22;18207;32.078;34.818;2024-03-22T03:13:43;23.60;34.80
23618;DHT22;18207;32.078;34.818;2024-03-22T03:16:12;23.60;34.80
23618;DHT22;18207;32.078;34.818;2024-03-22T03:18:41;23.60;34.90
23618;DHT22;18207;32.078;34.818;2024-03-22T03:21:08;23.60;34.90
23618;DHT22;18207;32.078;34.818;2024-03-22T03:23:37;23.60;35.00
23618;DHT22;18207;32.078;34.818;2024-03-22T03:26:04;23.60;35.00
23618;DHT22;18207;32.078;34.818;2024-03-22T03:28:33;23.60;35.00
23618;DHT22;18207;32.078;34.818;2024-03-22T03:31:00;23.60;35.00
23618;DHT22;18207;32.078;34.818;2024-03-22T03:33:30;23.60;35.00
23618;DHT22;18207;32.078;34.818;2024-03-22T03:35:58;23.60;35.00
23618;DHT22;18207;32.078;34.818;2024-03-22T03:38:26;23.70;35.10
23618;DHT22;18207;32.078;34.818;2024-03-22T03:40:54;23.70;35.10
23618;DHT22;18207;32.078;34.818;2024-03-22T03:43:22;23.70;35.10
23618;DHT22;18207;32.078;34.818;2024-03-22T03:45:49;23.70;35.10
23618;DHT22;18207;32.078;34.818;2024-03-22T03:48:21;23.70;35.10
23618;DHT22;18207;32.078;34.818;2024-03-22T03:50:54;23.70;35.10
23618;DHT22;18207;32.078;34.818;2024-03-22T03:53:25;23.70;35.10
23618;DHT22;18207;32.078;34.818;2024-03-22T03:55:53;23.70;35.10
23618;DHT22;18207;32.078;34.818;2024-03-22T03:58:22;23.70;35.00
23618;DHT22;18207;32.078;34.818;2024-03-22T04:00:49;23.70;34.90
23618;DHT22;18207;32.078;34.818;2024-03-22T04:03:18;23.70;34.80
23618;DHT22;18207;32.078;34.818;2024-03-22T04:05:45;23.70;34.70
23618;DHT22;18207;32.078;34.818;2024-03-22T04:08:15;23.70;34.70
23618;DHT22;18207;32.078;34.818;2024-03-22T04:10:51;23.70;34.60
23618;DHT22;18207;32.078;34.818;2024-03-22T04:13:22;23.70;34.50
23618;DHT22;18207;32.078;34.818;2024-03-22T04:16:05;23.70;34.50
23618;DHT22;18207;32.078;34.818;2024-03-22T04:18:34;23.70;34.50
23618;DHT22;18207;32.078;34.818;2024-03-22T04:21:02;23.70;34.40
23618;DHT22;18207;32.078;34.818;2024-03-22T04:23:32;23.70;34.40
23618;DHT22;18207;32.078;34.818;2024-03-22T04:26:01;23.70;34.40
23618;DHT22;18207;32.078;34.818;2024-03-22T04:28:30;23.70;35.10
23618;DHT22;18207;32.078;34.818;2024-03-22T04:31:00;23.70;34.50
23618;DHT22;18207;32.078;34.818;2024-03-22T04:33:31;23.70;34.50
23618;DHT22;18207;32.078;34.818;2024-03-22T04:36:00;23.70;34.50
23618;DHT22;18207;32.078;34.818;2024-03-22T04:38:32;23.70;34.50
23618;DHT22;18207;32.078;34.818;2024-03-22T04:41:01;23.70;34.60
23618;DHT22;18207;32.078;34.818;2024-03-22T04:43:30;23.70;34.60
23618;DHT22;18207;32.078;34.818;2024-03-22T04:45:58;23.70;34.70
23618;DHT22;18207;32.078;34.818;2024-03-22T04:48:26;23.70;34.70
23618;DHT22;18207;32.078;34.818;2024-03-22T04:50:54;23.70;34.70
23618;DHT22;18207;32.078;34.818;2024-03-22T04:53:21;23.80;34.90
23618;DHT22;18207;32.078;34.818;2024-03-22T04:55:52;23.80;34.80
23618;DHT22;18207;32.078;34.818;2024-03-22T04:58:21;23.80;34.70
23618;DHT22;18207;32.078;34.818;2024-03-22T05:00:49;23.80;34.70
23618;DHT22;18207;32.078;34.818;2024-03-22T05:03:23;23.80;34.80
23618;DHT22;18207;32.078;34.818;2024-03-22T05:05:51;23.80;34.80
23618;DHT22;18207;32.078;34.818;2024-03-22T05:08:20;23.90;34.90
23618;DHT22;18207;32.078;34.818;2024-03-22T05:10:47;23.90;34.90
23618;DHT22;18207;32.078;34.818;2024-03-22T05:13:18;23.90;34.90
23618;DHT22;18207;32.078;34.818;2024-03-22T05:15:46;23.90;34.90
23618;DHT22;18207;32.078;34.818;2024-03-22T05:18:14;23.90;34.90
23618;DHT22;18207;32.078;34.818;2024-03-22T05:20:41;23.90;34.90
23618;DHT22;18207;32.078;34.818;2024-03-22T05:23:13;23.90;34.90
23618;DHT22;18207;32.078;34.818;2024-03-22T05:25:42;23.90;34.80
23618;DHT22;18207;32.078;34.818;2024-03-22T05:28:10;23.90;34.70
23618;DHT22;18207;32.078;34.818;2024-03-22T05:30:40;24.00;34.70
23618;DHT22;18207;32.078;34.818;2024-03-22T05:33:08;23.90;34.70
23618;DHT22;18207;32.078;34.818;2024-03-22T05:35:35;24.00;34.70
23618;DHT22;18207;32.078;34.818;2024-03-22T05:38:04;24.00;34.80
23618;DHT22;18207;32.078;34.818;2024-03-22T05:40:31;24.00;34.80
23618;DHT22;18207;32.078;34.818;2024-03-22T05:42:59;24.00;34.70
23618;DHT22;18207;32.078;34.818;2024-03-22T05:45:27;24.00;34.80
23618;DHT22;18207;32.078;34.818;2024-03-22T05:47:57;24.00;34.70
23618;DHT22;18207;32.078;34.818;2024-03-22T05:50:25;24.00;34.70
23618;DHT22;18207;32.078;34.818;2024-03-22T05:52:53;24.00;34.70
23618;DHT22;18207;32.078;34.818;2024-03-22T05:55:20;24.10;34.70
23618;DHT22;18207;32.078;34.818;2024-03-22T05:57:49;24.10;34.70
23618;DHT22;18207;32.078;34.818;2024-03-22T06:00:25;24.10;34.80
23618;DHT22;18207;32.078;34.818;2024-03-22T06:02:54;24.10;34.70
23618;DHT22;18207;32.078;34.818;2024-03-22T06:05:23;24.10;34.80
23618;DHT22;18207;32.078;34.818;2024-03-22T06:07:51;24.10;34.80
23618;DHT22;18207;32.078;34.818;2024-03-22T06:10:18;24.10;34.90
23618;DHT22;18207;32.078;34.818;2024-03-22T06:12:47;24.10;34.90
23618;DHT22;18207;32.078;34.818;2024-03-22T06:15:14;24.20;35.00
23618;DHT22;18207;32.078;34.818;2024-03-22T06:17:43;24.30;35.10
23618;DHT22;18207;32.078;34.818;2024-03-22T06:20:12;24.30;35.00
23618;DHT22;18207;32.078;34.818;2024-03-22T06:22:42;24.30;34.90
23618;DHT22;18207;32.078;34.818;2024-03-22T06:25:11;24.40;35.00
23618;DHT22;18207;32.078;34.818;2024-03-22T06:27:38;24.40;34.90
23618;DHT22;18207;32.078;34.818;2024-03-22T06:30:07;24.40;34.90
23618;DHT22;18207;32.078;34.818;2024-03-22T06:32:35;24.50;34.90
23618;DHT22;18207;32.078;34.818;2024-03-22T06:35:04;24.50;34.90
23618;DHT22;18207;32.078;34.818;2024-03-22T06:37:32;24.50;34.90
23618;DHT22;18207;32.078;34.818;2024-03-22T06:40:02;24.50;34.80
23618;DHT22;18207;32.078;34.818;2024-03-22T06:42:31;24.50;34.80
23618;DHT22;18207;32.078;34.818;2024-03-22T06:44:59;24.50;34.70
23618;DHT22;18207;32.078;34.818;2024-03-22T06:47:26;24.50;34.70
23618;DHT22;18207;32.078;34.818;2024-03-22T06:49:55;24.50;34.70
23618;DHT22;18207;32.078;34.818;2024-03-22T06:52:22;24.50;34.70
23618;DHT22;18207;32.078;34.818;2024-03-22T06:54:51;24.50;34.70
23618;DHT22;18207;32.078;34.818;2024-03-22T06:57:21;24.60;34.80
23618;DHT22;18207;32.078;34.818;2024-03-22T06:59:50;24.60;34.80
23618;DHT22;18207;32.078;34.818;2024-03-22T07:02:17;24.70;34.90
23618;DHT22;18207;32.078;34.818;2024-03-22T07:04:46;24.70;34.90
23618;DHT22;18207;32.078;34.818;2024-03-22T07:07:14;24.80;34.90
23618;DHT22;18207;32.078;34.818;2024-03-22T07:09:42;24.80;34.90
23618;DHT22;18207;32.078;34.818;2024-03-22T07:12:09;24.80;34.90
23618;DHT22;18207;32.078;34.818;2024-03-22T07:14:40;24.90;34.90
23618;DHT22;18207;32.078;34.818;2024-03-22T07:17:07;24.90;34.80
23618;DHT22;18207;32.078;34.818;2024-03-22T07:19:36;25.00;34.90
23618;DHT22;18207;32.078;34.818;2024-03-22T07:22:03;25.00;34.90
23618;DHT22;18207;32.078;34.818;2024-03-22T07:24:32;25.10;34.80
23618;DHT22;18207;32.078;34.818;2024-03-22T07:26:59;25.20;34.80
23618;DHT22;18207;32.078;34.818;2024-03-22T07:29:27;25.20;34.80
23618;DHT22;18207;32.078;34.818;2024-03-22T07:31:56;25.30;34.70
23618;DHT22;18207;32.078;34.818;2024-03-22T07:34:29;25.30;34.70
23618;DHT22;18207;32.078;34.818;2024-03-22T07:36:56;25.30;34.70
23618;DHT22;18207;32.078;34.818;2024-03-22T07:39:25;25.40;34.70
23618;DHT22;18207;32.078;34.818;2024-03-22T07:41:52;25.40;34.70
23618;DHT22;18207;32.078;34.818;2024-03-22T07:44:21;25.50;34.70
23618;DHT22;18207;32.078;34.818;2024-03-22T07:46:50;25.50;34.60
23618;DHT22;18207;32.078;34.818;2024-03-22T07:49:20;25.60;34.60
23618;DHT22;18207;32.078;34.818;2024-03-22T07:51:48;25.60;34.50
23618;DHT22;18207;32.078;34.818;2024-03-22T07:54:16;25.70;34.50
23618;DHT22;18207;32.078;34.818;2024-03-22T07:56:43;25.70;34.40
23618;DHT22;18207;32.078;34.818;2024-03-22T07:59:12;25.80;34.40
23618;DHT22;18207;32.078;34.818;2024-03-22T08:01:39;25.80;34.30
23618;DHT22;18207;32.078;34.818;2024-03-22T08:04:07;25.80;34.30
23618;DHT22;18207;32.078;34.818;2024-03-22T08:06:37;25.90;34.30
23618;DHT22;18207;32.078;34.818;2024-03-22T08:09:05;25.90;34.20
23618;DHT22;18207;32.078;34.818;2024-03-22T08:11:34;25.90;34.20
23618;DHT22;18207;32.078;34.818;2024-03-22T08:14:02;26.00;34.20
23618;DHT22;18207;32.078;34.818;2024-03-22T08:16:29;26.00;34.10
23618;DHT22;18207;32.078;34.818;2024-03-22T08:18:58;26.00;34.20
23618;DHT22;18207;32.078;34.818;2024-03-22T08:21:25;26.00;34.20
23618;DHT22;18207;32.078;34.818;2024-03-22T08:23:56;26.00;34.10
23618;DHT22;18207;32.078;34.818;2024-03-22T08:26:26;26.10;34.20
23618;DHT22;18207;32.078;34.818;2024-03-22T08:28:54;26.10;34.10
23618;DHT22;18207;32.078;34.818;2024-03-22T08:31:22;26.20;34.00
23618;DHT22;18207;32.078;34.818;2024-03-22T08:33:52;26.20;34.00
23618;DHT22;18207;32.078;34.818;2024-03-22T08:36:19;26.20;34.00
23618;DHT22;18207;32.078;34.818;2024-03-22T08:38:47;26.20;33.90
23618;DHT22;18207;32.078;34.818;2024-03-22T08:41:16;26.30;33.90
23618;DHT22;18207;32.078;34.818;2024-03-22T08:43:45;26.30;33.80
23618;DHT22;18207;32.078;34.818;2024-03-22T08:46:12;26.40;33.90
23618;DHT22;18207;32.078;34.818;2024-03-22T08:48:40;26.40;33.80
23618;DHT22;18207;32.078;34.818;2024-03-22T08:51:08;26.40;33.80
23618;DHT22;18207;32.078;34.818;2024-03-22T08:53:36;26.50;33.70
23618;DHT22;18207;32.078;34.818;2024-03-22T08:56:04;26.50;33.60
23618;DHT22;18207;32.078;34.818;2024-03-22T08:58:34;26.50;33.60
23618;DHT22;18207;32.078;34.818;2024-03-22T09:01:03;26.50;33.50
23618;DHT22;18207;32.078;34.818;2024-03-22T09:03:32;26.60;33.60
23618;DHT22;18207;32.078;34.818;2024-03-22T09:05:59;26.60;33.40
23618;DHT22;18207;32.078;34.818;2024-03-22T09:08:29;26.60;33.40
23618;DHT22;18207;32.078;34.818;2024-03-22T09:10:56;26.60;33.30
23618;DHT22;18207;32.078;34.818;2024-03-22T09:13:25;26.60;33.30
23618;DHT22;18207;32.078;34.818;2024-03-22T09:15:58;26.70;33.30
23618;DHT22;18207;32.078;34.818;2024-03-22T09:18:27;26.70;33.00
23618;DHT22;18207;32.078;34.818;2024-03-22T09:20:55;26.70;33.00
23618;DHT22;18207;32.078;34.818;2024-03-22T09:23:23;26.70;33.00
23618;DHT22;18207;32.078;34.818;2024-03-22T09:25:51;26.70;33.00
23618;DHT22;18207;32.078;34.818;2024-03-22T09:28:19;26.70;33.00
23618;DHT22;18207;32.078;34.818;2024-03-22T09:30:46;26.70;33.00
23618;DHT22;18207;32.078;34.818;2024-03-22T09:33:17;26.70;33.00
23618;DHT22;18207;32.078;34.818;2024-03-22T09:35:44;26.80;33.00
23618;DHT22;18207;32.078;34.818;2024-03-22T09:38:13;26.70;33.00
23618;DHT22;18207;32.078;34.818;2024-03-22T09:40:41;26.70;32.90
23618;DHT22;18207;32.078;34.818;2024-03-22T09:43:12;26.80;32.90
23618;DHT22;18207;32.078;34.818;2024-03-22T09:45:45;26.80;33.00
23618;DHT22;18207;32.078;34.818;2024-03-22T09:48:16;26.80;33.00
23618;DHT22;18207;32.078;34.818;2024-03-22T09:50:45;26.80;32.90
23618;DHT22;18207;32.078;34.818;2024-03-22T09:53:18;26.80;32.80
23618;DHT22;18207;32.078;34.818;2024-03-22T09:55:48;26.80;32.70
23618;DHT22;18207;32.078;34.818;2024-03-22T09:58:18;26.80;32.70
23618;DHT22;18207;32.078;34.818;2024-03-22T10:00:45;26.90;32.70
23618;DHT22;18207;32.078;34.818;2024-03-22T10:03:16;26.90;32.70
23618;DHT22;18207;32.078;34.818;2024-03-22T10:05:43;27.00;32.80
23618;DHT22;18207;32.078;34.818;2024-03-22T10:08:12;26.90;32.70
23618;DHT22;18207;32.078;34.818;2024-03-22T10:10:39;27.00;32.70
23618;DHT22;18207;32.078;34.818;2024-03-22T10:13:10;27.00;32.70
23618;DHT22;18207;32.078;34.818;2024-03-22T10:15:37;27.00;32.60
23618;DHT22;18207;32.078;34.818;2024-03-22T10:18:06;27.10;32.70
23618;DHT22;18207;32.078;34.818;2024-03-22T10:20:36;27.10;32.60
23618;DHT22;18207;32.078;34.818;2024-03-22T10:23:04;27.10;32.50
23618;DHT22;18207;32.078;34.818;2024-03-22T10:25:34;27.10;32.50
23618;DHT22;18207;32.078;34.818;2024-03-22T10:28:06;27.10;32.40
23618;DHT22;18207;32.078;34.818;2024-03-22T10:30:35;27.10;32.30
23618;DHT22;18207;32.078;34.818;2024-03-22T10:33:06;27.10;32.30
23618;DHT22;18207;32.078;34.818;2024-03-22T10:35:33;27.10;32.30
23618;DHT22;18207;32.078;34.818;2024-03-22T10:38:06;27.10;32.30
23618;DHT22;18207;32.078;34.818;2024-03-22T10:40:35;27.10;32.30
23618;DHT22;18207;32.078;34.818;2024-03-22T10:43:04;27.10;32.10
23618;DHT22;18207;32.078;34.818;2024-03-22T10:45:32;27.10;32.10
23618;DHT22;18207;32.078;34.818;2024-03-22T10:48:09;27.10;32.00
23618;DHT22;18207;32.078;34.818;2024-03-22T10:50:41;27.10;32.00
23618;DHT22;18207;32.078;34.818;2024-03-22T10:53:14;27.10;32.00
23618;DHT22;18207;32.078;34.818;2024-03-22T10:55:47;27.10;32.00
23618;DHT22;18207;32.078;34.818;2024-03-22T10:58:17;27.10;32.00
23618;DHT22;18207;32.078;34.818;2024-03-22T11:00:51;27.10;32.00
23618;DHT22;18207;32.078;34.818;2024-03-22T11:03:20;27.10;32.10
23618;DHT22;18207;32.078;34.818;2024-03-22T11:05:54;27.20;32.00
23618;DHT22;18207;32.078;34.818;2024-03-22T11:08:27;27.10;32.00
23618;DHT22;18207;32.078;34.818;2024-03-22T11:10:57;27.10;32.00
23618;DHT22;18207;32.078;34.818;2024-03-22T11:13:24;27.20;32.00
23618;DHT22;18207;32.078;34.818;2024-03-22T11:15:52;27.20;32.00
23618;DHT22;18207;32.078;34.818;2024-03-22T11:18:20;27.10;31.90
23618;DHT22;18207;32.078;34.818;2024-03-22T11:20:50;27.10;32.00
23618;DHT22;18207;32.078;34.818;2024-03-22T11:23:19;27.10;32.00
23618;DHT22;18207;32.078;34.818;2024-03-22T11:25:47;27.10;31.90
23618;DHT22;18207;32.078;34.818;2024-03-22T11:28:15;27.10;31.90
23618;DHT22;18207;32.078;34.818;2024-03-22T11:30:43;27.10;31.90
23618;DHT22;18207;32.078;34.818;2024-03-22T11:33:11;27.10;31.90
23618;DHT22;18207;32.078;34.818;2024-03-22T11:35:40;27.10;31.90
23618;DHT22;18207;32.078;34.818;2024-03-22T11:38:08;27.10;31.90
23618;DHT22;18207;32.078;34.818;2024-03-22T11:40:37;27.10;31.90
23618;DHT22;18207;32.078;34.818;2024-03-22T11:43:05;27.20;32.00
23618;DHT22;18207;32.078;34.818;2024-03-22T11:45:33;27.10;31.90
23618;DHT22;18207;32.078;34.818;2024-03-22T11:48:05;27.20;31.90
23618;DHT22;18207;32.078;34.818;2024-03-22T11:50:35;27.10;31.80
23618;DHT22;18207;32.078;34.818;2024-03-22T11:53:05;27.20;31.80
23618;DHT22;18207;32.078;34.818;2024-03-22T11:55:36;27.20;31.80
23618;DHT22;18207;32.078;34.818;2024-03-22T11:58:03;27.10;31.80
23618;DHT22;18207;32.078;34.818;2024-03-22T12:00:32;27.10;31.80
23618;DHT22;18207;32.078;34.818;2024-03-22T12:02:59;27.10;31.80
23618;DHT22;18207;32.078;34.818;2024-03-22T12:05:30;27.20;31.80
23618;DHT22;18207;32.078;34.818;2024-03-22T12:07:57;27.20;31.80
23618;DHT22;18207;32.078;34.818;2024-03-22T12:10:25;27.20;31.80
23618;DHT22;18207;32.078;34.818;2024-03-22T12:12:55;27.10;31.80
23618;DHT22;18207;32.078;34.818;2024-03-22T12:15:23;27.10;31.80
23618;DHT22;18207;32.078;34.818;2024-03-22T12:17:50;27.10;31.80
23618;DHT22;18207;32.078;34.818;2024-03-22T12:20:19;27.10;31.80
23618;DHT22;18207;32.078;34.818;2024-03-22T12:22:48;27.10;31.80
23618;DHT22;18207;32.078;34.818;2024-03-22T12:25:16;27.10;31.80
23618;DHT22;18207;32.078;34.818;2024-03-22T12:27:43;27.00;31.80
23618;DHT22;18207;32.078;34.818;2024-03-22T12:30:16;27.00;31.80
23618;DHT22;18207;32.078;34.818;2024-03-22T12:32:43;27.00;31.80
23618;DHT22;18207;32.078;34.818;2024-03-22T12:35:12;26.90;31.80
23618;DHT22;18207;32.078;34.818;2024-03-22T12:37:39;27.00;32.00
23618;DHT22;18207;32.078;34.818;2024-03-22T12:40:09;26.90;31.90
23618;DHT22;18207;32.078;34.818;2024-03-22T12:42:38;26.90;31.90
23618;DHT22;18207;32.078;34.818;2024-03-22T12:45:07;26.90;31.90
23618;DHT22;18207;32.078;34.818;2024-03-22T12:47:36;26.80;31.80
23618;DHT22;18207;32.078;34.818;2024-03-22T12:50:06;26.80;31.90
23618;DHT22;18207;32.078;34.818;2024-03-22T12:52:34;26.80;32.00
23618;DHT22;18207;32.078;34.818;2024-03-22T12:55:03;26.80;32.00
23618;DHT22;18207;32.078;34.818;2024-03-22T12:57:31;26.80;32.00
23618;DHT22;18207;32.078;34.818;2024-03-22T12:59:59;26.80;32.00
23618;DHT22;18207;32.078;34.818;2024-03-22T13:02:26;26.70;32.00
23618;DHT22;18207;32.078;34.818;2024-03-22T13:04:57;26.70;32.00
23618;DHT22;18207;32.078;34.818;2024-03-22T13:07:24;26.80;32.00
23618;DHT22;18207;32.078;34.818;2024-03-22T13:09:53;26.70;32.00
23618;DHT22;18207;32.078;34.818;2024-03-22T13:12:21;26.70;32.00
23618;DHT22;18207;32.078;34.818;2024-03-22T13:14:50;26.70;32.00
23618;DHT22;18207;32.078;34.818;2024-03-22T13:17:18;26.70;32.00
23618;DHT22;18207;32.078;34.818;2024-03-22T13:19:47;26.70;32.10
23618;DHT22;18207;32.078;34.818;2024-03-22T13:22:16;26.60;32.00
23618;DHT22;18207;32.078;34.818;2024-03-22T13:24:45;26.60;32.10
23618;DHT22;18207;32.078;34.818;2024-03-22T13:27:13;26.60;32.10
23618;DHT22;18207;32.078;34.818;2024-03-22T13:29:41;26.60;32.10
23618;DHT22;18207;32.078;34.818;2024-03-22T13:32:09;26.60;32.10
23618;DHT22;18207;32.078;34.818;2024-03-22T13:34:37;26.60;32.00
23618;DHT22;18207;32.078;34.818;2024-03-22T13:37:06;26.60;32.00
23618;DHT22;18207;32.078;34.818;2024-03-22T13:39:34;26.50;31.90
23618;DHT22;18207;32.078;34.818;2024-03-22T13:42:03;26.50;31.80
23618;DHT22;18207;32.078;34.818;2024-03-22T13:44:32;26.50;31.90
23618;DHT22;18207;32.078;34.818;2024-03-22T13:47:01;26.50;31.80
23618;DHT22;18207;32.078;34.818;2024-03-22T13:49:31;26.50;31.80
23618;DHT22;18207;32.078;34.818;2024-03-22T13:51:59;26.50;31.90
23618;DHT22;18207;32.078;34.818;2024-03-22T13:54:26;26.50;31.90
23618;DHT22;18207;32.078;34.818;2024-03-22T13:56:57;26.40;31.80
23618;DHT22;18207;32.078;34.818;2024-03-22T13:59:24;26.40;31.80
23618;DHT22;18207;32.078;34.818;2024-03-22T14:01:53;26.40;31.80
23618;DHT22;18207;32.078;34.818;2024-03-22T14:04:20;26.40;31.80
23618;DHT22;18207;32.078;34.818;2024-03-22T14:06:48;26.40;31.80
23618;DHT22;18207;32.078;34.818;2024-03-22T14:09:16;26.30;31.80
23618;DHT22;18207;32.078;34.818;2024-03-22T14:11:44;26.30;31.90
23618;DHT22;18207;32.078;34.818;2024-03-22T14:14:16;26.30;31.90
23618;DHT22;18207;32.078;34.818;2024-03-22T14:16:45;26.20;31.90
23618;DHT22;18207;32.078;34.818;2024-03-22T14:19:12;26.30;31.90
23618;DHT22;18207;32.078;34.818;2024-03-22T14:21:41;26.30;32.00
23618;DHT22;18207;32.078;34.818;2024-03-22T14:24:09;26.20;31.90
23618;DHT22;18207;32.078;34.818;2024-03-22T14:26:38;26.20;32.60
23618;DHT22;18207;32.078;34.818;2024-03-22T14:29:09;26.20;32.00
23618;DHT22;18207;32.078;34.818;2024-03-22T14:31:39;26.20;32.10
23618;DHT22;18207;32.078;34.818;2024-03-22T14:34:09;26.20;32.10
23618;DHT22;18207;32.078;34.818;2024-03-22T14:36:37;26.20;32.20
23618;DHT22;18207;32.078;34.818;2024-03-22T14:39:05;26.10;32.20
23618;DHT22;18207;32.078;34.818;2024-03-22T14:41:33;26.10;32.30
23618;DHT22;18207;32.078;34.818;2024-03-22T14:44:00;26.10;32.30
23618;DHT22;18207;32.078;34.818;2024-03-22T14:46:29;26.10;32.30
23618;DHT22;18207;32.078;34.818;2024-03-22T14:48:58;26.00;32.30
23618;DHT22;18207;32.078;34.818;2024-03-22T14:51:26;26.00;32.30
23618;DHT22;18207;32.078;34.818;2024-03-22T14:53:54;26.00;32.30
23618;DHT22;18207;32.078;34.818;2024-03-22T14:56:23;26.00;32.30
23618;DHT22;18207;32.078;34.818;2024-03-22T14:58:50;26.00;32.30
23618;DHT22;18207;32.078;34.818;2024-03-22T15:01:18;25.90;32.30
23618;DHT22;18207;32.078;34.818;2024-03-22T15:03:46;25.90;32.40
23618;DHT22;18207;32.078;34.818;2024-03-22T15:06:18;25.90;32.40
23618;DHT22;18207;32.078;34.818;2024-03-22T15:08:45;25.90;32.50
23618;DHT22;18207;32.078;34.818;2024-03-22T15:11:13;25.90;32.50
23618;DHT22;18207;32.078;34.818;2024-03-22T15:13:41;25.90;32.50
23618;DHT22;18207;32.078;34.818;2024-03-22T15:16:10;25.80;32.50
23618;DHT22;18207;32.078;34.818;2024-03-22T15:18:37;25.80;32.50
23618;DHT22;18207;32.078;34.818;2024-03-22T15:21:07;25.80;32.50
23618;DHT22;18207;32.078;34.818;2024-03-22T15:23:36;25.80;32.60